sensor_id;sensor_type;location;lat;lon;timestamp;temperature;humidity
14119;DHT22;7138;49.246;9.100;2022-07-11T00:02:24;16.30;99.90
14119;DHT22;7138;49.246;9.100;2022-07-11T00:04:50;16.20;99.90
14119;DHT22;7138;49.246;9.100;2022-07-11T00:07:16;16.30;99.90
14119;DHT22;7138;49.246;9.100;2022-07-11T00:09:42;16.20;99.90
14119;DHT22;7138;49.246;9.100;2022-07-11T00:12:10;16.20;99.90
14119;DHT22;7138;49.246;9.100;2022-07-11T00:14:38;16.20;99.90
14119;DHT22;7138;49.246;9.100;2022-07-11T00:17:05;16.20;99.90
14119;DHT22;7138;49.246;9.100;2022-07-11T00:19:33;16.20;99.90
14119;DHT22;7138;49.246;9.100;2022-07-11T00:21:59;16.20;99.90
14119;DHT22;7138;49.246;9.100;2022-07-11T00:24:25;16.20;99.90
14119;DHT22;7138;49.246;9.100;2022-07-11T00:26:52;16.30;99.90
14119;DHT22;7138;49.246;9.100;2022-07-11T00:29:18;16.30;99.90
14119;DHT22;7138;49.246;9.100;2022-07-11T00:31:45;16.30;99.90
14119;DHT22;7138;49.246;9.100;2022-07-11T00:34:11;16.30;99.90
14119;DHT22;7138;49.246;9.100;2022-07-11T00:36:37;16.20;99.90
14119;DHT22;7138;49.246;9.100;2022-07-11T00:39:03;16.20;99.90
14119;DHT22;7138;49.246;9.100;2022-07-11T00:41:29;16.20;99.90
14119;DHT22;7138;49.246;9.100;2022-07-11T00:43:57;16.20;99.90
14119;DHT22;7138;49.246;9.100;2022-07-11T00:46:25;16.20;99.90
14119;DHT22;7138;49.246;9.100;2022-07-11T00:48:53;16.10;99.90
14119;DHT22;7138;49.246;9.100;2022-07-11T00:51:20;16.20;99.90
14119;DHT22;7138;49.246;9.100;2022-07-11T00:53:47;16.10;99.90
14119;DHT22;7138;49.246;9.100;2022-07-11T00:56:17;16.10;99.90
14119;DHT22;7138;49.246;9.100;2022-07-11T00:58:45;16.00;99.90
14119;DHT22;7138;49.246;9.100;2022-07-11T01:01:12;16.10;99.90
14119;DHT22;7138;49.246;9.100;2022-07-11T01:03:38;16.10;99.90
14119;DHT22;7138;49.246;9.100;2022-07-11T01:06:06;16.10;99.90
14119;DHT22;7138;49.246;9.100;2022-07-11T01:08:33;16.10;99.90
14119;DHT22;7138;49.246;9.100;2022-07-11T01:11:01;16.10;99.90
14119;DHT22;7138;49.246;9.100;2022-07-11T01:13:28;16.10;99.90
14119;DHT22;7138;49.246;9.100;2022-07-11T01:16:07;16.10;99.90
14119;DHT22;7138;49.246;9.100;2022-07-11T01:18:36;16.20;99.90
14119;DHT22;7138;49.246;9.100;2022-07-11T01:21:07;16.10;99.90
14119;DHT22;7138;49.246;9.100;2022-07-11T01:23:41;16.10;99.90
14119;DHT22;7138;49.246;9.100;2022-07-11T01:26:07;16.20;99.90
14119;DHT22;7138;49.246;9.100;2022-07-11T01:28:33;16.10;99.90
14119;DHT22;7138;49.246;9.100;2022-07-11T01:30:59;16.00;99.90
14119;DHT22;7138;49.246;9.100;2022-07-11T01:33:25;16.10;99.90
14119;DHT22;7138;49.246;9.100;2022-07-11T01:35:51;16.00;99.90
14119;DHT22;7138;49.246;9.100;2022-07-11T01:38:17;16.00;99.90
14119;DHT22;7138;49.246;9.100;2022-07-11T01:40:44;16.00;99.90
14119;DHT22;7138;49.246;9.100;2022-07-11T01:43:09;16.00;99.90
14119;DHT22;7138;49.246;9.100;2022-07-11T01:45:35;16.00;99.90
14119;DHT22;7138;49.246;9.100;2022-07-11T01:48:01;15.90;99.90
14119;DHT22;7138;49.246;9.100;2022-07-11T01:50:27;15.90;99.90
14119;DHT22;7138;49.246;9.100;2022-07-11T01:52:53;15.90;99.90
14119;DHT22;7138;49.246;9.100;2022-07-11T01:55:19;15.90;99.90
14119;DHT22;7138;49.246;9.100;2022-07-11T01:57:46;15.90;99.90
14119;DHT22;7138;49.246;9.100;2022-07-11T02:00:13;15.90;99.90
14119;DHT22;7138;49.246;9.100;2022-07-11T02:02:38;15.80;99.90
14119;DHT22;7138;49.246;9.100;2022-07-11T02:05:05;15.80;99.90
14119;DHT22;7138;49.246;9.100;2022-07-11T02:07:31;15.80;99.90
14119;DHT22;7138;49.246;9.100;2022-07-11T02:10:15;15.80;99.90
14119;DHT22;7138;49.246;9.100;2022-07-11T02:12:41;15.80;99.90
14119;DHT22;7138;49.246;9.100;2022-07-11T02:15:09;15.70;99.90
14119;DHT22;7138;49.246;9.100;2022-07-11T02:17:35;15.70;99.90
14119;DHT22;7138;49.246;9.100;2022-07-11T02:20:01;15.70;99.90
14119;DHT22;7138;49.246;9.100;2022-07-11T02:22:27;15.70;99.90
14119;DHT22;7138;49.246;9.100;2022-07-11T02:24:55;15.70;99.90
14119;DHT22;7138;49.246;9.100;2022-07-11T02:27:21;15.80;99.90
14119;DHT22;7138;49.246;9.100;2022-07-11T02:29:47;15.70;99.90
14119;DHT22;7138;49.246;9.100;2022-07-11T02:32:14;15.70;99.90
14119;DHT22;7138;49.246;9.100;2022-07-11T02:34:40;15.70;99.90
14119;DHT22;7138;49.246;9.100;2022-07-11T02:37:06;15.70;99.90
14119;DHT22;7138;49.246;9.100;2022-07-11T02:39:31;15.70;99.90
14119;DHT22;7138;49.246;9.100;2022-07-11T02:41:57;15.70;99.90
14119;DHT22;7138;49.246;9.100;2022-07-11T02:44:23;15.60;99.90
14119;DHT22;7138;49.246;9.100;2022-07-11T02:46:49;15.60;99.90
14119;DHT22;7138;49.246;9.100;2022-07-11T02:49:16;15.60;99.90
14119;DHT22;7138;49.246;9.100;2022-07-11T02:51:42;15.60;99.90
14119;DHT22;7138;49.246;9.100;2022-07-11T02:54:08;15.70;99.90
14119;DHT22;7138;49.246;9.100;2022-07-11T02:56:34;15.70;99.90
14119;DHT22;7138;49.246;9.100;2022-07-11T02:58:59;15.70;99.90
14119;DHT22;7138;49.246;9.100;2022-07-11T03:01:25;15.60;99.90
14119;DHT22;7138;49.246;9.100;2022-07-11T03:03:52;15.60;99.90
14119;DHT22;7138;49.246;9.100;2022-07-11T03:06:19;15.60;99.90
14119;DHT22;7138;49.246;9.100;2022-07-11T03:08:45;15.60;99.90
14119;DHT22;7138;49.246;9.100;2022-07-11T03:11:11;15.60;99.90
14119;DHT22;7138;49.246;9.100;2022-07-11T03:13:37;15.60;99.90
14119;DHT22;7138;49.246;9.100;2022-07-11T03:16:03;15.60;99.90
14119;DHT22;7138;49.246;9.100;2022-07-11T03:18:30;15.60;99.90
14119;DHT22;7138;49.246;9.100;2022-07-11T03:20:56;15.60;99.90
14119;DHT22;7138;49.246;9.100;2022-07-11T03:23:23;15.60;99.90
14119;DHT22;7138;49.246;9.100;2022-07-11T03:25:49;15.70;99.90
14119;DHT22;7138;49.246;9.100;2022-07-11T03:28:15;15.70;99.90
14119;DHT22;7138;49.246;9.100;2022-07-11T03:30:41;15.70;99.90
14119;DHT22;7138;49.246;9.100;2022-07-11T03:33:06;15.60;99.90
14119;DHT22;7138;49.246;9.100;2022-07-11T03:35:32;15.60;99.90
14119;DHT22;7138;49.246;9.100;2022-07-11T03:38:08;15.50;99.90
14119;DHT22;7138;49.246;9.100;2022-07-11T03:40:35;15.60;99.90
14119;DHT22;7138;49.246;9.100;2022-07-11T03:43:02;15.60;99.90
14119;DHT22;7138;49.246;9.100;2022-07-11T03:45:28;15.60;99.90
14119;DHT22;7138;49.246;9.100;2022-07-11T03:47:54;15.60;99.90
14119;DHT22;7138;49.246;9.100;2022-07-11T03:50:20;15.60;99.90
14119;DHT22;7138;49.246;9.100;2022-07-11T03:52:46;15.60;99.90
14119;DHT22;7138;49.246;9.100;2022-07-11T03:55:12;15.60;99.90
14119;DHT22;7138;49.246;9.100;2022-07-11T03:57:40;15.60;99.90
14119;DHT22;7138;49.246;9.100;2022-07-11T04:00:07;15.60;99.90
14119;DHT22;7138;49.246;9.100;2022-07-11T04:02:34;15.50;99.90
14119;DHT22;7138;49.246;9.100;2022-07-11T04:05:00;15.50;99.90
14119;DHT22;7138;49.246;9.100;2022-07-11T04:07:26;15.50;99.90
14119;DHT22;7138;49.246;9.100;2022-07-11T04:09:55;15.60;99.90
14119;DHT22;7138;49.246;9.100;2022-07-11T04:12:21;15.60;99.90
14119;DHT22;7138;49.246;9.100;2022-07-11T04:14:49;15.70;99.90
14119;DHT22;7138;49.246;9.100;2022-07-11T04:17:15;15.60;99.90
14119;DHT22;7138;49.246;9.100;2022-07-11T04:19:41;15.70;99.90
14119;DHT22;7138;49.246;9.100;2022-07-11T04:22:11;15.70;99.90
14119;DHT22;7138;49.246;9.100;2022-07-11T04:24:37;15.70;99.90
14119;DHT22;7138;49.246;9.100;2022-07-11T04:27:04;15.80;99.90
14119;DHT22;7138;49.246;9.100;2022-07-11T04:29:30;15.80;99.90
14119;DHT22;7138;49.246;9.100;2022-07-11T04:31:57;15.80;99.90
14119;DHT22;7138;49.246;9.100;2022-07-11T04:34:23;15.80;99.90
14119;DHT22;7138;49.246;9.100;2022-07-11T04:36:49;15.90;99.90
14119;DHT22;7138;49.246;9.100;2022-07-11T04:39:15;15.90;99.90
14119;DHT22;7138;49.246;9.100;2022-07-11T04:41:41;15.80;99.90
14119;DHT22;7138;49.246;9.100;2022-07-11T04:44:06;15.90;99.90
14119;DHT22;7138;49.246;9.100;2022-07-11T04:46:33;16.00;99.90
14119;DHT22;7138;49.246;9.100;2022-07-11T04:49:00;16.00;99.90
14119;DHT22;7138;49.246;9.100;2022-07-11T04:51:26;16.10;99.90
14119;DHT22;7138;49.246;9.100;2022-07-11T04:53:52;16.20;99.90
14119;DHT22;7138;49.246;9.100;2022-07-11T04:56:18;16.20;99.90
14119;DHT22;7138;49.246;9.100;2022-07-11T04:58:44;16.20;99.90
14119;DHT22;7138;49.246;9.100;2022-07-11T05:01:10;16.20;99.90
14119;DHT22;7138;49.246;9.100;2022-07-11T05:03:36;16.20;99.90
14119;DHT22;7138;49.246;9.100;2022-07-11T05:06:04;16.20;99.90
14119;DHT22;7138;49.246;9.100;2022-07-11T05:08:30;16.20;99.90
14119;DHT22;7138;49.246;9.100;2022-07-11T05:10:56;16.20;99.90
14119;DHT22;7138;49.246;9.100;2022-07-11T05:13:22;16.20;99.90
14119;DHT22;7138;49.246;9.100;2022-07-11T05:15:48;16.20;99.90
14119;DHT22;7138;49.246;9.100;2022-07-11T05:18:14;16.20;99.90
14119;DHT22;7138;49.246;9.100;2022-07-11T05:20:39;16.30;99.90
14119;DHT22;7138;49.246;9.100;2022-07-11T05:23:07;16.40;99.90
14119;DHT22;7138;49.246;9.100;2022-07-11T05:25:32;16.40;99.90
14119;DHT22;7138;49.246;9.100;2022-07-11T05:27:58;16.30;99.90
14119;DHT22;7138;49.246;9.100;2022-07-11T05:30:24;16.40;99.90
14119;DHT22;7138;49.246;9.100;2022-07-11T05:32:50;16.40;99.90
14119;DHT22;7138;49.246;9.100;2022-07-11T05:35:16;16.40;99.90
14119;DHT22;7138;49.246;9.100;2022-07-11T05:37:42;16.40;99.90
14119;DHT22;7138;49.246;9.100;2022-07-11T05:40:10;16.40;99.90
14119;DHT22;7138;49.246;9.100;2022-07-11T05:42:37;16.40;99.90
14119;DHT22;7138;49.246;9.100;2022-07-11T05:45:03;16.40;99.90
14119;DHT22;7138;49.246;9.100;2022-07-11T05:47:29;16.50;99.90
14119;DHT22;7138;49.246;9.100;2022-07-11T05:49:55;16.50;99.90
14119;DHT22;7138;49.246;9.100;2022-07-11T05:52:21;16.50;99.90
14119;DHT22;7138;49.246;9.100;2022-07-11T05:54:47;16.60;99.90
14119;DHT22;7138;49.246;9.100;2022-07-11T05:57:14;16.60;99.90
14119;DHT22;7138;49.246;9.100;2022-07-11T05:59:40;16.70;99.90
14119;DHT22;7138;49.246;9.100;2022-07-11T06:02:05;16.80;99.90
14119;DHT22;7138;49.246;9.100;2022-07-11T06:04:33;16.80;99.90
14119;DHT22;7138;49.246;9.100;2022-07-11T06:06:59;16.80;99.90
14119;DHT22;7138;49.246;9.100;2022-07-11T06:09:25;16.80;99.90
14119;DHT22;7138;49.246;9.100;2022-07-11T06:11:51;16.90;99.90
14119;DHT22;7138;49.246;9.100;2022-07-11T06:14:18;16.90;99.90
14119;DHT22;7138;49.246;9.100;2022-07-11T06:16:44;17.00;99.90
14119;DHT22;7138;49.246;9.100;2022-07-11T06:19:10;17.10;99.90
14119;DHT22;7138;49.246;9.100;2022-07-11T06:21:36;17.20;99.90
14119;DHT22;7138;49.246;9.100;2022-07-11T06:24:03;17.30;99.90
14119;DHT22;7138;49.246;9.100;2022-07-11T06:26:29;17.40;99.90
14119;DHT22;7138;49.246;9.100;2022-07-11T06:28:55;17.40;99.90
14119;DHT22;7138;49.246;9.100;2022-07-11T06:31:23;17.60;99.90
14119;DHT22;7138;49.246;9.100;2022-07-11T06:33:49;18.00;99.90
14119;DHT22;7138;49.246;9.100;2022-07-11T06:36:20;18.30;99.90
14119;DHT22;7138;49.246;9.100;2022-07-11T06:38:48;18.40;99.90
14119;DHT22;7138;49.246;9.100;2022-07-11T06:41:14;18.50;99.90
14119;DHT22;7138;49.246;9.100;2022-07-11T06:43:40;18.60;99.90
14119;DHT22;7138;49.246;9.100;2022-07-11T06:46:06;18.70;99.90
14119;DHT22;7138;49.246;9.100;2022-07-11T06:48:33;18.70;99.90
14119;DHT22;7138;49.246;9.100;2022-07-11T06:50:59;18.90;99.90
14119;DHT22;7138;49.246;9.100;2022-07-11T06:53:25;18.90;99.90
14119;DHT22;7138;49.246;9.100;2022-07-11T06:55:51;18.90;99.90
14119;DHT22;7138;49.246;9.100;2022-07-11T06:58:17;19.30;99.90
14119;DHT22;7138;49.246;9.100;2022-07-11T07:00:58;19.70;99.90
14119;DHT22;7138;49.246;9.100;2022-07-11T07:03:25;19.90;99.90
14119;DHT22;7138;49.246;9.100;2022-07-11T07:05:53;20.20;99.90
14119;DHT22;7138;49.246;9.100;2022-07-11T07:08:21;20.20;99.90
14119;DHT22;7138;49.246;9.100;2022-07-11T07:10:48;20.40;99.90
14119;DHT22;7138;49.246;9.100;2022-07-11T07:13:14;20.60;99.90
14119;DHT22;7138;49.246;9.100;2022-07-11T07:15:40;20.60;99.90
14119;DHT22;7138;49.246;9.100;2022-07-11T07:18:06;20.50;99.90
14119;DHT22;7138;49.246;9.100;2022-07-11T07:20:32;21.20;99.90
14119;DHT22;7138;49.246;9.100;2022-07-11T07:22:59;21.50;99.90
14119;DHT22;7138;49.246;9.100;2022-07-11T07:25:25;21.40;99.90
14119;DHT22;7138;49.246;9.100;2022-07-11T07:27:51;21.90;99.90
14119;DHT22;7138;49.246;9.100;2022-07-11T07:30:17;22.60;99.90
14119;DHT22;7138;49.246;9.100;2022-07-11T07:32:43;22.20;99.90
14119;DHT22;7138;49.246;9.100;2022-07-11T07:35:09;21.80;99.90
14119;DHT22;7138;49.246;9.100;2022-07-11T07:37:35;21.30;99.90
14119;DHT22;7138;49.246;9.100;2022-07-11T07:40:03;21.50;99.90
14119;DHT22;7138;49.246;9.100;2022-07-11T07:42:30;21.50;99.90
14119;DHT22;7138;49.246;9.100;2022-07-11T07:44:56;21.00;99.90
14119;DHT22;7138;49.246;9.100;2022-07-11T07:47:21;21.50;99.90
14119;DHT22;7138;49.246;9.100;2022-07-11T07:49:47;21.80;99.90
14119;DHT22;7138;49.246;9.100;2022-07-11T07:52:13;21.90;99.90
14119;DHT22;7138;49.246;9.100;2022-07-11T07:54:40;22.50;99.90
14119;DHT22;7138;49.246;9.100;2022-07-11T07:57:07;22.30;99.90
14119;DHT22;7138;49.246;9.100;2022-07-11T07:59:33;22.10;99.90
14119;DHT22;7138;49.246;9.100;2022-07-11T08:01:58;21.70;99.90
14119;DHT22;7138;49.246;9.100;2022-07-11T08:04:24;21.50;99.90
14119;DHT22;7138;49.246;9.100;2022-07-11T08:06:50;21.10;99.90
14119;DHT22;7138;49.246;9.100;2022-07-11T08:09:16;20.80;99.90
14119;DHT22;7138;49.246;9.100;2022-07-11T08:11:42;21.70;99.90
14119;DHT22;7138;49.246;9.100;2022-07-11T08:14:09;22.40;99.90
14119;DHT22;7138;49.246;9.100;2022-07-11T08:16:36;22.20;99.90
14119;DHT22;7138;49.246;9.100;2022-07-11T08:19:04;22.40;99.90
14119;DHT22;7138;49.246;9.100;2022-07-11T08:21:31;22.70;99.90
14119;DHT22;7138;49.246;9.100;2022-07-11T08:23:58;23.30;99.90
14119;DHT22;7138;49.246;9.100;2022-07-11T08:26:24;22.50;99.90
14119;DHT22;7138;49.246;9.100;2022-07-11T08:28:50;22.50;99.90
14119;DHT22;7138;49.246;9.100;2022-07-11T08:31:18;22.10;99.90
14119;DHT22;7138;49.246;9.100;2022-07-11T08:33:44;21.70;99.90
14119;DHT22;7138;49.246;9.100;2022-07-11T08:36:11;22.30;99.90
14119;DHT22;7138;49.246;9.100;2022-07-11T08:38:37;23.40;99.90
14119;DHT22;7138;49.246;9.100;2022-07-11T08:41:04;24.10;99.90
14119;DHT22;7138;49.246;9.100;2022-07-11T08:43:31;24.60;99.90
14119;DHT22;7138;49.246;9.100;2022-07-11T08:45:58;24.50;99.90
14119;DHT22;7138;49.246;9.100;2022-07-11T08:48:27;24.20;99.90
14119;DHT22;7138;49.246;9.100;2022-07-11T08:50:54;23.70;99.90
14119;DHT22;7138;49.246;9.100;2022-07-11T08:53:21;23.20;99.90
14119;DHT22;7138;49.246;9.100;2022-07-11T08:55:47;22.60;99.90
14119;DHT22;7138;49.246;9.100;2022-07-11T08:58:13;22.30;99.90
14119;DHT22;7138;49.246;9.100;2022-07-11T09:00:42;22.40;99.90
14119;DHT22;7138;49.246;9.100;2022-07-11T09:03:14;22.60;99.90
14119;DHT22;7138;49.246;9.100;2022-07-11T09:05:43;22.90;99.90
14119;DHT22;7138;49.246;9.100;2022-07-11T09:08:09;23.00;99.90
14119;DHT22;7138;49.246;9.100;2022-07-11T09:10:38;22.90;99.90
14119;DHT22;7138;49.246;9.100;2022-07-11T09:13:06;22.30;99.90
14119;DHT22;7138;49.246;9.100;2022-07-11T09:15:35;22.50;99.90
14119;DHT22;7138;49.246;9.100;2022-07-11T09:18:03;22.50;99.90
14119;DHT22;7138;49.246;9.100;2022-07-11T09:20:53;22.20;99.90
14119;DHT22;7138;49.246;9.100;2022-07-11T09:23:42;21.90;99.90
14119;DHT22;7138;49.246;9.100;2022-07-11T09:26:29;21.50;99.90
14119;DHT22;7138;49.246;9.100;2022-07-11T09:29:00;21.90;99.90
14119;DHT22;7138;49.246;9.100;2022-07-11T09:31:31;22.10;99.90
14119;DHT22;7138;49.246;9.100;2022-07-11T09:33:59;22.20;99.90
14119;DHT22;7138;49.246;9.100;2022-07-11T09:36:35;21.80;99.90
14119;DHT22;7138;49.246;9.100;2022-07-11T09:39:03;21.90;99.90
14119;DHT22;7138;49.246;9.100;2022-07-11T09:41:34;22.10;99.90
14119;DHT22;7138;49.246;9.100;2022-07-11T09:44:08;22.70;99.90
14119;DHT22;7138;49.246;9.100;2022-07-11T09:46:36;23.00;99.90
14119;DHT22;7138;49.246;9.100;2022-07-11T09:49:02;23.40;99.90
14119;DHT22;7138;49.246;9.100;2022-07-11T09:51:30;23.10;99.90
14119;DHT22;7138;49.246;9.100;2022-07-11T09:54:00;22.90;99.90
14119;DHT22;7138;49.246;9.100;2022-07-11T09:56:32;23.20;99.90
14119;DHT22;7138;49.246;9.100;2022-07-11T09:59:00;22.90;99.90
14119;DHT22;7138;49.246;9.100;2022-07-11T10:01:28;23.20;99.90
14119;DHT22;7138;49.246;9.100;2022-07-11T10:03:57;23.10;99.90
14119;DHT22;7138;49.246;9.100;2022-07-11T10:06:24;23.20;99.90
14119;DHT22;7138;49.246;9.100;2022-07-11T10:08:50;23.40;99.90
14119;DHT22;7138;49.246;9.100;2022-07-11T10:11:18;23.10;99.90
14119;DHT22;7138;49.246;9.100;2022-07-11T10:13:45;23.20;99.90
14119;DHT22;7138;49.246;9.100;2022-07-11T10:16:19;22.90;99.90
14119;DHT22;7138;49.246;9.100;2022-07-11T10:18:55;22.60;99.90
14119;DHT22;7138;49.246;9.100;2022-07-11T10:21:35;22.50;99.90
14119;DHT22;7138;49.246;9.100;2022-07-11T10:24:18;22.60;99.90
14119;DHT22;7138;49.246;9.100;2022-07-11T10:27:02;22.60;99.90
14119;DHT22;7138;49.246;9.100;2022-07-11T10:29:40;22.60;99.90
14119;DHT22;7138;49.246;9.100;2022-07-11T10:32:11;22.60;99.90
14119;DHT22;7138;49.246;9.100;2022-07-11T10:34:37;22.80;99.90
14119;DHT22;7138;49.246;9.100;2022-07-11T10:37:05;22.90;99.90
14119;DHT22;7138;49.246;9.100;2022-07-11T10:39:32;22.80;99.90
14119;DHT22;7138;49.246;9.100;2022-07-11T10:42:04;22.60;99.90
14119;DHT22;7138;49.246;9.100;2022-07-11T10:44:49;22.30;99.90
14119;DHT22;7138;49.246;9.100;2022-07-11T10:47:31;22.00;99.90
14119;DHT22;7138;49.246;9.100;2022-07-11T10:50:05;22.00;99.90
14119;DHT22;7138;49.246;9.100;2022-07-11T10:52:37;22.10;99.90
14119;DHT22;7138;49.246;9.100;2022-07-11T10:55:18;22.30;99.90
14119;DHT22;7138;49.246;9.100;2022-07-11T10:58:02;22.30;99.90
14119;DHT22;7138;49.246;9.100;2022-07-11T11:00:33;22.50;99.90
14119;DHT22;7138;49.246;9.100;2022-07-11T11:03:01;22.80;99.90
14119;DHT22;7138;49.246;9.100;2022-07-11T11:05:44;23.20;99.90
14119;DHT22;7138;49.246;9.100;2022-07-11T11:08:39;23.60;99.90
14119;DHT22;7138;49.246;9.100;2022-07-11T11:11:34;23.60;99.90
14119;DHT22;7138;49.246;9.100;2022-07-11T11:14:23;24.00;99.90
14119;DHT22;7138;49.246;9.100;2022-07-11T11:16:53;23.80;99.90
14119;DHT22;7138;49.246;9.100;2022-07-11T11:19:56;24.20;99.90
14119;DHT22;7138;49.246;9.100;2022-07-11T11:22:23;24.00;99.90
14119;DHT22;7138;49.246;9.100;2022-07-11T11:24:52;23.30;99.90
14119;DHT22;7138;49.246;9.100;2022-07-11T11:27:20;23.80;99.90
14119;DHT22;7138;49.246;9.100;2022-07-11T11:29:50;23.60;99.90
14119;DHT22;7138;49.246;9.100;2022-07-11T11:32:17;23.70;99.90
14119;DHT22;7138;49.246;9.100;2022-07-11T11:34:44;23.80;99.90
14119;DHT22;7138;49.246;9.100;2022-07-11T11:37:10;24.00;99.90
14119;DHT22;7138;49.246;9.100;2022-07-11T11:39:38;23.80;99.90
14119;DHT22;7138;49.246;9.100;2022-07-11T11:42:10;24.00;99.90
14119;DHT22;7138;49.246;9.100;2022-07-11T11:44:51;23.90;99.90
14119;DHT22;7138;49.246;9.100;2022-07-11T11:47:19;23.50;99.90
14119;DHT22;7138;49.246;9.100;2022-07-11T11:49:46;23.20;99.90
14119;DHT22;7138;49.246;9.100;2022-07-11T11:52:13;23.00;99.90
14119;DHT22;7138;49.246;9.100;2022-07-11T11:54:39;22.80;99.90
14119;DHT22;7138;49.246;9.100;2022-07-11T11:57:07;22.50;99.90
14119;DHT22;7138;49.246;9.100;2022-07-11T11:59:35;22.60;99.90
14119;DHT22;7138;49.246;9.100;2022-07-11T12:02:03;22.70;99.90
14119;DHT22;7138;49.246;9.100;2022-07-11T12:04:30;22.60;99.90
14119;DHT22;7138;49.246;9.100;2022-07-11T12:06:58;22.90;99.90
14119;DHT22;7138;49.246;9.100;2022-07-11T12:09:26;22.90;99.90
14119;DHT22;7138;49.246;9.100;2022-07-11T12:12:11;23.20;99.90
14119;DHT22;7138;49.246;9.100;2022-07-11T12:14:55;23.20;99.90
14119;DHT22;7138;49.246;9.100;2022-07-11T12:17:26;23.30;99.90
14119;DHT22;7138;49.246;9.100;2022-07-11T12:19:55;23.60;99.90
14119;DHT22;7138;49.246;9.100;2022-07-11T12:22:21;23.50;99.90
14119;DHT22;7138;49.246;9.100;2022-07-11T12:24:48;23.60;99.90
14119;DHT22;7138;49.246;9.100;2022-07-11T12:27:17;23.80;99.90
14119;DHT22;7138;49.246;9.100;2022-07-11T12:29:43;23.80;99.90
14119;DHT22;7138;49.246;9.100;2022-07-11T12:32:15;23.80;99.90
14119;DHT22;7138;49.246;9.100;2022-07-11T12:34:43;24.00;99.90
14119;DHT22;7138;49.246;9.100;2022-07-11T12:37:11;24.00;99.90
14119;DHT22;7138;49.246;9.100;2022-07-11T12:39:47;24.00;99.90
14119;DHT22;7138;49.246;9.100;2022-07-11T12:42:24;24.00;99.90
14119;DHT22;7138;49.246;9.100;2022-07-11T12:44:57;23.90;99.90
14119;DHT22;7138;49.246;9.100;2022-07-11T12:47:25;23.70;99.90
14119;DHT22;7138;49.246;9.100;2022-07-11T12:49:56;24.00;99.90
14119;DHT22;7138;49.246;9.100;2022-07-11T12:52:22;23.90;99.90
14119;DHT22;7138;49.246;9.100;2022-07-11T12:54:49;24.40;99.90
14119;DHT22;7138;49.246;9.100;2022-07-11T12:57:16;24.60;99.90
14119;DHT22;7138;49.246;9.100;2022-07-11T12:59:43;24.50;99.90
14119;DHT22;7138;49.246;9.100;2022-07-11T13:02:10;24.60;99.90
14119;DHT22;7138;49.246;9.100;2022-07-11T13:04:39;24.80;99.90
14119;DHT22;7138;49.246;9.100;2022-07-11T13:07:27;24.80;99.90
14119;DHT22;7138;49.246;9.100;2022-07-11T13:10:14;24.70;99.90
14119;DHT22;7138;49.246;9.100;2022-07-11T13:12:43;24.60;99.90
14119;DHT22;7138;49.246;9.100;2022-07-11T13:15:13;24.50;99.90
14119;DHT22;7138;49.246;9.100;2022-07-11T13:17:44;24.40;99.90
14119;DHT22;7138;49.246;9.100;2022-07-11T13:20:12;24.20;99.90
14119;DHT22;7138;49.246;9.100;2022-07-11T13:22:41;24.20;99.90
14119;DHT22;7138;49.246;9.100;2022-07-11T13:25:08;23.90;99.90
14119;DHT22;7138;49.246;9.100;2022-07-11T13:27:37;24.00;99.90
14119;DHT22;7138;49.246;9.100;2022-07-11T13:30:04;24.00;99.90
14119;DHT22;7138;49.246;9.100;2022-07-11T13:32:37;24.00;99.90
14119;DHT22;7138;49.246;9.100;2022-07-11T13:35:03;24.30;99.90
14119;DHT22;7138;49.246;9.100;2022-07-11T13:37:30;24.30;99.90
14119;DHT22;7138;49.246;9.100;2022-07-11T13:39:58;24.40;99.90
14119;DHT22;7138;49.246;9.100;2022-07-11T13:42:24;24.40;99.90
14119;DHT22;7138;49.246;9.100;2022-07-11T13:44:50;24.60;99.90
14119;DHT22;7138;49.246;9.100;2022-07-11T13:47:16;24.70;99.90
14119;DHT22;7138;49.246;9.100;2022-07-11T13:49:41;24.90;99.90
14119;DHT22;7138;49.246;9.100;2022-07-11T13:52:08;24.70;99.90
14119;DHT22;7138;49.246;9.100;2022-07-11T13:54:34;24.80;99.90
14119;DHT22;7138;49.246;9.100;2022-07-11T13:57:01;24.50;99.90
14119;DHT22;7138;49.246;9.100;2022-07-11T13:59:27;24.50;99.90
14119;DHT22;7138;49.246;9.100;2022-07-11T14:01:53;24.40;99.90
14119;DHT22;7138;49.246;9.100;2022-07-11T14:04:19;24.30;99.90
14119;DHT22;7138;49.246;9.100;2022-07-11T14:06:45;24.50;99.90
14119;DHT22;7138;49.246;9.100;2022-07-11T14:09:11;24.60;99.90
14119;DHT22;7138;49.246;9.100;2022-07-11T14:11:39;24.70;99.90
14119;DHT22;7138;49.246;9.100;2022-07-11T14:14:06;25.10;99.90
14119;DHT22;7138;49.246;9.100;2022-07-11T14:16:32;25.30;99.90
14119;DHT22;7138;49.246;9.100;2022-07-11T14:18:58;26.00;99.90
14119;DHT22;7138;49.246;9.100;2022-07-11T14:21:30;26.20;99.90
14119;DHT22;7138;49.246;9.100;2022-07-11T14:23:55;26.50;99.90
14119;DHT22;7138;49.246;9.100;2022-07-11T14:26:21;26.20;99.90
14119;DHT22;7138;49.246;9.100;2022-07-11T14:28:47;25.90;99.90
14119;DHT22;7138;49.246;9.100;2022-07-11T14:31:15;25.80;99.90
14119;DHT22;7138;49.246;9.100;2022-07-11T14:33:41;25.40;99.90
14119;DHT22;7138;49.246;9.100;2022-07-11T14:36:07;25.10;99.90
14119;DHT22;7138;49.246;9.100;2022-07-11T14:38:33;24.80;99.90
14119;DHT22;7138;49.246;9.100;2022-07-11T14:40:59;24.90;99.90
14119;DHT22;7138;49.246;9.100;2022-07-11T14:43:25;25.10;99.90
14119;DHT22;7138;49.246;9.100;2022-07-11T14:45:53;24.80;99.90
14119;DHT22;7138;49.246;9.100;2022-07-11T14:48:20;24.80;99.90
14119;DHT22;7138;49.246;9.100;2022-07-11T14:50:46;25.10;99.90
14119;DHT22;7138;49.246;9.100;2022-07-11T14:53:12;25.40;99.90
14119;DHT22;7138;49.246;9.100;2022-07-11T14:55:38;25.50;99.90
14119;DHT22;7138;49.246;9.100;2022-07-11T14:58:04;25.30;99.90
14119;DHT22;7138;49.246;9.100;2022-07-11T15:00:30;24.90;99.90
14119;DHT22;7138;49.246;9.100;2022-07-11T15:02:57;25.10;99.90
14119;DHT22;7138;49.246;9.100;2022-07-11T15:05:43;25.40;99.90
14119;DHT22;7138;49.246;9.100;2022-07-11T15:08:09;25.20;99.90
14119;DHT22;7138;49.246;9.100;2022-07-11T15:10:54;25.80;99.90
14119;DHT22;7138;49.246;9.100;2022-07-11T15:13:38;26.20;99.90
14119;DHT22;7138;49.246;9.100;2022-07-11T15:16:04;26.20;99.90
14119;DHT22;7138;49.246;9.100;2022-07-11T15:18:31;26.20;99.90
14119;DHT22;7138;49.246;9.100;2022-07-11T15:20:58;25.70;99.90
14119;DHT22;7138;49.246;9.100;2022-07-11T15:23:24;25.70;99.90
14119;DHT22;7138;49.246;9.100;2022-07-11T15:25:50;25.70;99.90
14119;DHT22;7138;49.246;9.100;2022-07-11T15:28:16;25.60;99.90
14119;DHT22;7138;49.246;9.100;2022-07-11T15:30:42;25.70;99.90
14119;DHT22;7138;49.246;9.100;2022-07-11T15:33:08;25.50;99.90
14119;DHT22;7138;49.246;9.100;2022-07-11T15:35:33;25.50;99.90
14119;DHT22;7138;49.246;9.100;2022-07-11T15:38:01;25.20;99.90
14119;DHT22;7138;49.246;9.100;2022-07-11T15:40:26;25.10;99.90
14119;DHT22;7138;49.246;9.100;2022-07-11T15:42:52;25.30;99.90
14119;DHT22;7138;49.246;9.100;2022-07-11T15:45:18;25.30;99.90
14119;DHT22;7138;49.246;9.100;2022-07-11T15:47:45;25.20;99.90
14119;DHT22;7138;49.246;9.100;2022-07-11T15:50:10;24.80;99.90
14119;DHT22;7138;49.246;9.100;2022-07-11T15:52:36;24.80;99.90